Time;durP1;ratioP1;P1;durP2;ratioP2;P2;SDS_P1;SDS_P2;PMS_P1;PMS_P2;Temp;Humidity;BMP_temperature;BMP_pressure;BME280_temperature;BME280_humidity;BME280_pressure;Samples;Min_cycle;Max_cycle;Signal;HPM_P1;HPM_P2
2021/08/29 00:01:36;;;;;;;17.83;8.43;;;23.00;99.90;;;;;;5054483;28;20233;-75
2021/08/29 00:04:03;;;;;;;19.40;8.17;;;23.10;99.90;;;;;;5039365;28;20191;-75
2021/08/29 00:06:29;;;;;;;23.60;8.97;;;23.10;99.90;;;;;;5055443;28;20205;-72
2021/08/29 00:08:55;;;;;;;16.20;8.30;;;23.10;99.90;;;;;;5031559;28;20696;-74
2021/08/29 00:11:23;;;;;;;18.17;7.97;;;23.10;99.90;;;;;;5059209;28;20201;-75
2021/08/29 00:13:49;;;;;;;19.00;8.95;;;23.10;99.90;;;;;;5056641;28;20571;-73
2021/08/29 00:16:15;;;;;;;22.60;9.10;;;23.10;99.90;;;;;;5055571;28;20194;-72
2021/08/29 00:18:42;;;;;;;29.63;9.77;;;23.30;99.90;;;;;;5039639;28;20215;-74
2021/08/29 00:21:08;;;;;;;26.97;9.23;;;23.20;99.90;;;;;;5039362;28;20191;-72
2021/08/29 00:23:35;;;;;;;17.00;8.27;;;23.20;99.90;;;;;;5054981;28;20385;-73
2021/08/29 00:26:01;;;;;;;20.70;8.50;;;23.20;99.90;;;;;;5056310;28;20205;-73
2021/08/29 00:28:28;;;;;;;18.47;9.00;;;23.10;99.90;;;;;;5055900;28;20199;-72
2021/08/29 00:30:54;;;;;;;18.20;8.40;;;23.10;99.90;;;;;;5038346;28;20191;-73
2021/08/29 00:33:21;;;;;;;24.30;9.03;;;23.10;99.90;;;;;;5060892;28;20194;-73
2021/08/29 00:35:47;;;;;;;22.23;8.80;;;23.20;99.90;;;;;;5055842;28;20186;-73
2021/08/29 00:38:13;;;;;;;23.30;9.23;;;23.10;99.90;;;;;;5037604;28;20211;-74
2021/08/29 00:40:39;;;;;;;20.03;9.27;;;23.20;99.90;;;;;;5055427;28;20187;-75
2021/08/29 00:43:06;;;;;;;25.07;8.90;;;23.10;99.90;;;;;;5057692;28;20190;-72
2021/08/29 00:45:35;;;;;;;25.87;9.50;;;23.10;99.90;;;;;;5056978;28;20556;-73
2021/08/29 00:48:02;;;;;;;20.33;8.90;;;23.20;99.90;;;;;;5041499;28;20267;-73
2021/08/29 00:50:30;;;;;;;23.43;9.83;;;23.20;99.90;;;;;;5058464;28;20206;-73
2021/08/29 00:52:56;;;;;;;22.43;10.53;;;23.20;99.90;;;;;;5037160;28;20277;-72
2021/08/29 00:55:23;;;;;;;18.30;9.60;;;23.20;99.90;;;;;;5055953;28;20277;-72
2021/08/29 00:57:49;;;;;;;19.07;9.30;;;23.20;99.90;;;;;;5055663;28;20233;-71
2021/08/29 01:00:16;;;;;;;29.73;10.57;;;23.30;99.90;;;;;;5057038;28;20196;-72
2021/08/29 01:02:43;;;;;;;22.13;9.53;;;23.30;99.90;;;;;;5043226;28;20187;-74
2021/08/29 01:05:29;;;;;;;16.73;8.30;;;23.10;99.90;;;;;;5056590;28;20211;-74
2021/08/29 01:08:03;;;;;;;25.23;9.40;;;23.00;99.90;;;;;;5059112;28;20191;-73
2021/08/29 01:10:42;;;;;;;16.40;8.03;;;23.10;99.90;;;;;;5045981;28;20684;-74
2021/08/29 01:13:30;;;;;;;20.73;8.17;;;23.10;99.90;;;;;;5058502;28;20271;-73
2021/08/29 01:16:01;;;;;;;22.20;8.13;;;23.10;99.90;;;;;;5035699;28;20195;-73
2021/08/29 01:18:38;;;;;;;24.50;8.30;;;23.10;99.90;;;;;;5055882;28;20563;-73
2021/08/29 01:21:20;;;;;;;23.57;8.00;;;23.10;99.90;;;;;;5060529;28;20214;-75
2021/08/29 01:24:20;;;;;;;24.83;8.07;;;23.00;99.90;;;;;;5060127;28;20198;-73
2021/08/29 01:26:56;;;;;;;23.27;8.17;;;22.90;99.90;;;;;;5060728;28;20206;-74
2021/08/29 01:29:28;;;;;;;18.23;7.53;;;22.90;99.90;;;;;;5060628;28;20835;-74
2021/08/29 01:31:57;;;;;;;20.27;7.27;;;22.90;99.90;;;;;;5061496;28;20202;-73
2021/08/29 01:34:23;;;;;;;16.03;7.13;;;22.80;99.90;;;;;;5062352;28;20694;-74
2021/08/29 01:36:54;;;;;;;16.10;6.97;;;22.70;99.90;;;;;;5062466;28;20202;-74
2021/08/29 01:39:23;;;;;;;20.83;7.43;;;22.80;99.90;;;;;;5056447;28;20229;-73
2021/08/29 01:41:53;;;;;;;23.37;7.70;;;22.70;99.90;;;;;;5050914;28;20188;-73
2021/08/29 01:44:21;;;;;;;15.73;6.87;;;22.60;99.90;;;;;;5063377;28;20251;-74
2021/08/29 01:46:51;;;;;;;20.23;7.57;;;22.60;99.90;;;;;;5044009;28;20190;-73
2021/08/29 01:49:18;;;;;;;22.47;7.37;;;22.60;99.90;;;;;;5059400;28;20221;-74
2021/08/29 01:51:45;;;;;;;20.93;7.23;;;22.60;99.90;;;;;;5062855;28;20625;-72
2021/08/29 01:54:11;;;;;;;15.73;7.30;;;22.50;99.90;;;;;;5059816;28;20261;-74
2021/08/29 01:57:13;;;;;;;21.83;7.57;;;22.50;99.90;;;;;;5062532;28;20194;-72
2021/08/29 01:59:43;;;;;;;17.93;6.83;;;22.50;99.90;;;;;;5028878;28;20283;-72
2021/08/29 02:02:11;;;;;;;21.43;7.57;;;22.60;99.90;;;;;;5060454;28;20291;-74
2021/08/29 02:04:40;;;;;;;20.40;6.73;;;22.50;99.90;;;;;;5062319;28;20273;-73
2021/08/29 02:07:13;;;;;;;22.63;7.20;;;22.50;99.90;;;;;;5058894;28;20201;-74
2021/08/29 02:09:56;;;;;;;22.20;7.83;;;22.40;99.90;;;;;;5062574;28;20945;-73
2021/08/29 02:12:24;;;;;;;21.43;7.57;;;22.40;99.90;;;;;;5051954;28;20191;-73
2021/08/29 02:15:08;;;;;;;25.63;7.87;;;22.50;99.90;;;;;;5044584;28;20646;-76
2021/08/29 02:17:37;;;;;;;18.90;7.50;;;22.50;99.90;;;;;;5046656;28;20190;-75
2021/08/29 02:20:14;;;;;;;22.10;6.97;;;22.50;99.90;;;;;;5056947;28;20178;-75
2021/08/29 02:22:41;;;;;;;16.93;7.10;;;22.50;99.90;;;;;;5060669;28;20186;-74
2021/08/29 02:25:09;;;;;;;22.03;7.63;;;22.50;99.90;;;;;;5057314;28;20707;-75
2021/08/29 02:27:37;;;;;;;25.53;7.13;;;22.50;99.90;;;;;;5058333;28;21021;-74
2021/08/29 02:30:07;;;;;;;26.17;6.83;;;22.60;99.90;;;;;;5057220;28;20273;-75
2021/08/29 02:32:39;;;;;;;25.53;7.80;;;22.70;99.90;;;;;;5055134;28;20728;-76
2021/08/29 02:35:07;;;;;;;21.83;7.17;;;22.60;99.90;;;;;;5060857;28;20232;-74
2021/08/29 02:37:35;;;;;;;28.27;7.80;;;22.60;99.90;;;;;;5059885;28;20236;-73
2021/08/29 02:40:05;;;;;;;29.27;7.33;;;22.60;99.90;;;;;;5044247;28;20202;-74
2021/08/29 02:42:31;;;;;;;23.30;7.63;;;22.50;99.90;;;;;;5054636;28;20193;-73
2021/08/29 02:45:05;;;;;;;24.70;6.87;;;22.40;99.90;;;;;;5063213;28;20191;-75
2021/08/29 02:47:32;;;;;;;19.77;6.60;;;22.30;99.90;;;;;;5044915;28;20968;-76
2021/08/29 02:49:59;;;;;;;25.03;7.33;;;22.20;99.90;;;;;;5076927;28;20192;-74
2021/08/29 02:52:25;;;;;;;23.47;6.43;;;22.30;99.90;;;;;;5062061;28;20211;-75
2021/08/29 02:54:53;;;;;;;21.57;6.70;;;22.20;99.90;;;;;;5067824;28;20353;-77
2021/08/29 02:57:22;;;;;;;25.63;6.50;;;22.20;99.90;;;;;;5060767;28;20668;-75
2021/08/29 02:59:49;;;;;;;20.63;6.37;;;22.20;99.90;;;;;;5060948;28;20265;-75
2021/08/29 03:02:16;;;;;;;24.40;7.40;;;22.20;99.90;;;;;;5063175;28;20636;-77
2021/08/29 03:04:42;;;;;;;22.60;6.73;;;22.20;99.90;;;;;;5047356;28;20191;-77
2021/08/29 03:07:09;;;;;;;23.87;6.47;;;22.20;99.90;;;;;;5061796;28;20194;-75
2021/08/29 03:09:35;;;;;;;22.73;6.93;;;22.10;99.90;;;;;;5061519;28;20198;-74
2021/08/29 03:12:11;;;;;;;20.37;6.43;;;22.10;99.90;;;;;;5061674;28;24094;-76
2021/08/29 03:14:40;;;;;;;18.80;6.47;;;22.10;99.90;;;;;;5058803;28;20211;-75
2021/08/29 03:17:08;;;;;;;24.23;6.30;;;22.20;99.90;;;;;;5059180;28;20191;-76
2021/08/29 03:19:35;;;;;;;20.47;5.77;;;22.20;99.90;;;;;;5058784;28;20192;-75
2021/08/29 03:22:04;;;;;;;21.50;5.60;;;22.30;99.90;;;;;;5045809;28;20191;-76
2021/08/29 03:24:30;;;;;;;15.47;5.80;;;22.30;99.90;;;;;;5062908;28;20195;-76
2021/08/29 03:26:57;;;;;;;19.87;6.17;;;22.30;99.90;;;;;;5042261;28;20223;-73
2021/08/29 03:29:23;;;;;;;23.37;6.40;;;22.20;99.90;;;;;;5042894;28;20193;-75
2021/08/29 03:31:50;;;;;;;15.07;5.87;;;22.20;99.90;;;;;;5058802;28;20198;-75
2021/08/29 03:34:18;;;;;;;17.90;6.00;;;22.20;99.90;;;;;;5043154;28;20302;-74
2021/08/29 03:36:45;;;;;;;21.10;6.73;;;22.10;99.90;;;;;;5057670;28;20486;-74
2021/08/29 03:39:14;;;;;;;26.20;6.20;;;22.10;99.90;;;;;;5042704;28;20745;-75
2021/08/29 03:41:43;;;;;;;22.30;6.57;;;22.10;99.90;;;;;;5058477;28;20175;-77
2021/08/29 03:44:13;;;;;;;24.07;6.67;;;22.20;99.90;;;;;;5052077;28;20983;-76
2021/08/29 03:46:40;;;;;;;26.90;6.67;;;22.30;99.90;;;;;;5045906;28;20187;-76
2021/08/29 03:49:07;;;;;;;17.27;5.97;;;22.40;99.90;;;;;;5040024;28;20175;-75
2021/08/29 03:51:37;;;;;;;27.73;6.10;;;22.30;99.90;;;;;;5060139;28;20223;-75
2021/08/29 03:54:06;;;;;;;17.97;5.57;;;22.30;99.90;;;;;;5042230;28;20230;-75
2021/08/29 03:56:35;;;;;;;21.47;6.50;;;22.30;99.90;;;;;;5063135;28;20186;-75
2021/08/29 03:59:02;;;;;;;23.50;6.30;;;22.40;99.90;;;;;;5059949;28;20183;-75
2021/08/29 04:01:29;;;;;;;18.33;6.17;;;22.40;99.90;;;;;;5043654;28;20198;-75
2021/08/29 04:03:56;;;;;;;21.90;6.43;;;22.50;99.90;;;;;;5044879;28;20188;-75
2021/08/29 04:06:25;;;;;;;16.77;6.00;;;22.50;99.90;;;;;;5060616;28;20190;-75
2021/08/29 04:08:54;;;;;;;21.33;6.43;;;22.60;99.90;;;;;;5061694;28;20182;-76
2021/08/29 04:11:30;;;;;;;20.63;6.03;;;22.60;99.90;;;;;;5057068;28;20183;-75
2021/08/29 04:13:58;;;;;;;32.93;6.70;;;22.70;99.90;;;;;;5054873;28;20279;-75
2021/08/29 04:16:25;;;;;;;17.57;6.30;;;22.70;99.90;;;;;;5037085;28;20567;-77
2021/08/29 04:18:53;;;;;;;26.00;7.33;;;22.80;99.90;;;;;;5043319;28;20270;-75
2021/08/29 04:21:26;;;;;;;18.57;6.87;;;22.80;99.90;;;;;;5058870;28;20198;-75
2021/08/29 04:23:53;;;;;;;18.47;6.67;;;22.90;99.90;;;;;;5059929;28;20199;-76
2021/08/29 04:26:19;;;;;;;25.50;6.73;;;22.90;99.90;;;;;;5044606;28;20188;-74
2021/08/29 04:28:46;;;;;;;23.97;7.13;;;23.00;99.90;;;;;;5065168;28;20187;-77
2021/08/29 04:31:24;;;;;;;23.07;7.30;;;23.10;99.90;;;;;;5046967;28;20191;-76
2021/08/29 04:33:51;;;;;;;26.33;7.00;;;23.10;99.90;;;;;;5061590;28;20627;-76
2021/08/29 04:36:18;;;;;;;22.37;7.20;;;23.20;99.90;;;;;;5060102;28;20183;-75
2021/08/29 04:38:45;;;;;;;26.60;6.95;;;23.20;99.90;;;;;;5061795;28;20191;-75
2021/08/29 04:41:12;;;;;;;30.60;7.35;;;23.30;99.90;;;;;;5053469;28;20684;-77
2021/08/29 04:43:38;;;;;;;32.93;7.53;;;23.40;99.90;;;;;;5077422;28;20194;-74
2021/08/29 04:46:05;;;;;;;28.80;7.40;;;23.40;99.90;;;;;;5036303;28;20671;-76
2021/08/29 04:48:32;;;;;;;28.27;7.35;;;23.40;99.90;;;;;;5047521;28;20191;-75
2021/08/29 04:51:01;;;;;;;25.37;7.40;;;23.50;99.90;;;;;;5060679;28;20236;-74
2021/08/29 04:53:27;;;;;;;24.67;7.75;;;23.60;99.90;;;;;;5047449;28;20715;-74
2021/08/29 04:55:54;;;;;;;24.88;6.97;;;23.60;99.90;;;;;;5060937;28;20186;-74
2021/08/29 04:58:20;;;;;;;29.27;6.95;;;23.70;99.90;;;;;;5063506;28;20179;-75
2021/08/29 05:00:46;;;;;;;23.30;6.90;;;23.70;99.90;;;;;;5064083;28;20187;-74
2021/08/29 05:03:13;;;;;;;32.03;7.40;;;23.80;99.90;;;;;;5048634;28;20231;-75
2021/08/29 05:05:39;;;;;;;30.27;7.50;;;23.80;99.90;;;;;;5063481;28;20647;-76
2021/08/29 05:08:06;;;;;;;23.58;6.80;;;23.90;99.90;;;;;;5065486;28;20187;-76
2021/08/29 05:10:32;;;;;;;33.58;7.03;;;23.90;99.90;;;;;;5061663;28;20278;-74
2021/08/29 05:12:58;;;;;;;26.85;6.85;;;24.00;99.90;;;;;;5063544;28;20201;-75
2021/08/29 05:15:25;;;;;;;23.35;6.28;;;24.00;99.90;;;;;;5058393;28;20211;-76
2021/08/29 05:17:51;;;;;;;19.95;6.13;;;24.00;99.90;;;;;;5043805;28;20180;-75
2021/08/29 05:20:18;;;;;;;23.08;5.80;;;24.10;99.90;;;;;;5058631;28;20198;-75
2021/08/29 05:22:44;;;;;;;27.30;6.13;;;24.10;99.90;;;;;;5062740;28;20191;-74
2021/08/29 05:25:10;;;;;;;26.75;6.60;;;24.10;99.90;;;;;;5060761;28;20281;-74
2021/08/29 05:27:37;;;;;;;28.85;6.72;;;24.20;99.90;;;;;;5058745;28;20778;-74
2021/08/29 05:30:04;;;;;;;31.85;7.38;;;24.30;99.90;;;;;;5062281;28;20278;-74
2021/08/29 05:32:31;;;;;;;24.27;6.13;;;24.30;99.90;;;;;;5060979;28;20219;-75
2021/08/29 05:34:57;;;;;;;21.27;6.47;;;24.30;99.90;;;;;;5063482;28;20746;-73
2021/08/29 05:37:23;;;;;;;29.40;6.72;;;24.30;99.90;;;;;;5079183;28;20266;-74
2021/08/29 05:39:50;;;;;;;31.38;6.65;;;24.40;99.90;;;;;;5062242;28;20936;-73
2021/08/29 05:42:16;;;;;;;24.17;6.45;;;24.50;99.90;;;;;;5046091;28;20206;-73
2021/08/29 05:44:43;;;;;;;26.13;6.65;;;24.50;99.90;;;;;;5051034;28;21029;-76
2021/08/29 05:47:09;;;;;;;27.27;6.30;;;24.50;99.90;;;;;;5073869;28;20236;-73
2021/08/29 05:49:36;;;;;;;29.25;6.13;;;24.50;99.90;;;;;;5065252;28;20191;-74
2021/08/29 05:52:02;;;;;;;21.95;5.90;;;24.60;99.90;;;;;;5062580;28;20211;-76
2021/08/29 05:54:29;;;;;;;23.00;6.05;;;24.70;99.90;;;;;;5046626;28;20296;-76
2021/08/29 05:56:55;;;;;;;24.63;5.88;;;24.70;99.90;;;;;;5059584;28;20190;-76
2021/08/29 05:59:22;;;;;;;28.33;6.10;;;24.70;99.90;;;;;;5044799;28;20241;-76
2021/08/29 06:01:48;;;;;;;27.08;6.47;;;24.70;99.90;;;;;;5062302;28;20191;-74
2021/08/29 06:04:15;;;;;;;19.77;5.68;;;24.80;99.90;;;;;;5045474;28;20188;-73
2021/08/29 06:06:41;;;;;;;18.38;5.25;;;24.80;99.90;;;;;;5047033;28;20197;-75
2021/08/29 06:09:08;;;;;;;22.73;6.38;;;24.80;99.90;;;;;;5062499;28;20195;-74
2021/08/29 06:11:35;;;;;;;27.60;6.25;;;24.80;99.90;;;;;;5048913;28;20191;-75
2021/08/29 06:14:01;;;;;;;23.30;5.95;;;24.90;99.90;;;;;;5064392;28;20288;-74
2021/08/29 06:16:28;;;;;;;24.10;6.35;;;25.10;99.90;;;;;;5051922;28;20560;-73
2021/08/29 06:18:54;;;;;;;31.38;6.47;;;25.20;99.90;;;;;;5060080;28;20687;-73
2021/08/29 06:21:21;;;;;;;27.25;7.20;;;25.20;99.90;;;;;;5060339;28;20189;-73
2021/08/29 06:23:48;;;;;;;23.20;6.05;;;25.30;99.90;;;;;;5060541;28;20197;-75
2021/08/29 06:26:14;;;;;;;17.08;5.55;;;25.30;99.90;;;;;;5042869;28;20933;-75
2021/08/29 06:28:40;;;;;;;22.58;6.15;;;25.30;99.90;;;;;;5067310;28;20281;-74
2021/08/29 06:31:07;;;;;;;28.02;6.90;;;25.30;99.90;;;;;;5061127;28;20191;-73
2021/08/29 06:33:33;;;;;;;25.20;7.38;;;25.30;99.90;;;;;;5060135;28;20195;-74
2021/08/29 06:36:00;;;;;;;31.17;6.80;;;25.40;99.90;;;;;;5047966;28;20187;-76
2021/08/29 06:38:26;;;;;;;28.55;6.40;;;25.40;99.90;;;;;;5059989;28;20265;-74
2021/08/29 06:40:53;;;;;;;33.13;7.03;;;25.50;99.90;;;;;;5042407;28;20193;-75
2021/08/29 06:43:20;;;;;;;23.52;6.70;;;25.60;99.90;;;;;;5060587;28;20179;-74
2021/08/29 06:45:46;;;;;;;24.08;6.57;;;25.90;99.90;;;;;;5055931;28;20703;-73
2021/08/29 06:48:13;;;;;;;28.83;7.32;;;25.90;99.90;;;;;;5055740;28;20191;-72
2021/08/29 06:50:39;;;;;;;30.52;7.30;;;25.90;99.90;;;;;;5045557;28;20186;-73
2021/08/29 06:53:06;;;;;;;26.45;6.43;;;26.00;99.90;;;;;;5061859;28;20188;-73
2021/08/29 06:55:32;;;;;;;22.10;6.53;;;26.20;99.90;;;;;;5058409;28;20861;-75
2021/08/29 06:57:58;;;;;;;29.88;7.43;;;26.30;99.90;;;;;;5062487;28;20187;-73
2021/08/29 07:00:25;;;;;;;22.60;6.30;;;26.20;99.90;;;;;;5060488;28;20194;-73
2021/08/29 07:02:51;;;;;;;37.25;7.15;;;26.30;99.90;;;;;;5043668;28;20217;-75
2021/08/29 07:05:17;;;;;;;24.88;6.60;;;26.30;99.90;;;;;;5060429;28;20225;-76
2021/08/29 07:07:43;;;;;;;29.75;6.72;;;26.40;99.90;;;;;;5062301;28;20188;-74
2021/08/29 07:10:10;;;;;;;20.52;5.78;;;26.40;99.90;;;;;;5042869;28;20232;-75
2021/08/29 07:12:37;;;;;;;24.45;6.30;;;26.60;99.90;;;;;;5065437;28;20195;-74
2021/08/29 07:15:05;;;;;;;27.38;6.97;;;26.50;99.90;;;;;;5060864;28;20216;-75
2021/08/29 07:17:31;;;;;;;22.40;6.43;;;26.40;99.90;;;;;;5055787;28;21255;-74
2021/08/29 07:19:58;;;;;;;26.63;6.88;;;26.30;99.90;;;;;;5055450;28;20218;-74
2021/08/29 07:22:24;;;;;;;32.20;6.50;;;26.60;99.90;;;;;;5042174;28;20193;-74
2021/08/29 07:24:50;;;;;;;23.52;5.88;;;26.60;99.90;;;;;;5058513;28;20190;-76
2021/08/29 07:27:17;;;;;;;25.10;6.35;;;26.70;99.90;;;;;;5061180;28;20187;-73
2021/08/29 07:29:43;;;;;;;17.38;5.60;;;26.70;99.90;;;;;;5060469;28;20204;-73
2021/08/29 07:32:11;;;;;;;28.73;6.35;;;26.70;99.90;;;;;;5062105;28;20195;-75
2021/08/29 07:34:41;;;;;;;27.23;6.72;;;26.70;99.90;;;;;;5059289;28;20215;-74
2021/08/29 07:37:08;;;;;;;24.27;5.88;;;26.80;99.90;;;;;;5044621;28;20200;-74
2021/08/29 07:39:34;;;;;;;22.52;6.53;;;27.10;99.90;;;;;;5064221;28;20202;-73
2021/08/29 07:42:00;;;;;;;23.60;6.45;;;27.10;99.90;;;;;;5045029;28;20187;-74
2021/08/29 07:44:27;;;;;;;22.70;5.75;;;27.10;99.90;;;;;;5062953;28;20202;-74
2021/08/29 07:46:54;;;;;;;21.58;6.13;;;27.20;99.90;;;;;;5059893;28;20959;-75
2021/08/29 07:49:21;;;;;;;25.77;5.57;;;27.40;99.90;;;;;;5050264;28;20516;-73
2021/08/29 07:51:47;;;;;;;24.45;6.18;;;27.50;99.90;;;;;;5044726;28;20198;-74
2021/08/29 07:54:14;;;;;;;31.17;7.13;;;27.40;99.90;;;;;;5057695;28;20297;-73
2021/08/29 07:56:40;;;;;;;29.70;5.88;;;27.70;99.90;;;;;;5061937;28;20191;-75
2021/08/29 07:59:06;;;;;;;24.77;6.35;;;27.60;99.90;;;;;;5060069;28;20648;-74
2021/08/29 08:01:33;;;;;;;27.90;6.47;;;27.80;99.90;;;;;;5062519;28;20249;-74
2021/08/29 08:03:59;;;;;;;24.60;6.50;;;28.00;99.90;;;;;;5061778;28;20190;-74
2021/08/29 08:06:27;;;;;;;27.40;6.78;;;28.20;99.90;;;;;;5059147;28;20209;-75
2021/08/29 08:08:55;;;;;;;24.45;6.05;;;28.50;99.90;;;;;;5061620;28;20859;-74
2021/08/29 08:11:21;;;;;;;28.17;5.97;;;28.10;99.90;;;;;;5045812;28;20260;-73
2021/08/29 08:13:48;;;;;;;29.17;5.28;;;28.20;99.90;;;;;;5060479;28;20834;-74
2021/08/29 08:16:16;;;;;;;26.00;6.30;;;28.20;99.90;;;;;;5058394;28;20537;-75
2021/08/29 08:18:42;;;;;;;26.95;5.88;;;28.40;99.90;;;;;;5055866;28;20202;-73
2021/08/29 08:21:10;;;;;;;27.92;5.57;;;28.50;99.90;;;;;;5036032;28;20331;-75
2021/08/29 08:23:37;;;;;;;30.05;5.72;;;28.60;99.90;;;;;;5055665;28;20199;-74
2021/08/29 08:26:03;;;;;;;22.17;5.53;;;28.60;99.90;;;;;;5058743;28;20628;-75
2021/08/29 08:28:30;;;;;;;22.52;5.43;;;28.40;99.90;;;;;;5075648;28;20186;-74
2021/08/29 08:30:56;;;;;;;23.05;5.75;;;28.40;99.90;;;;;;5040635;28;20191;-75
2021/08/29 08:33:23;;;;;;;26.80;6.22;;;28.70;99.90;;;;;;5060606;28;20312;-75
2021/08/29 08:35:49;;;;;;;28.83;5.88;;;29.10;99.90;;;;;;5054151;28;20224;-74
2021/08/29 08:38:16;;;;;;;25.35;5.97;;;29.30;99.90;;;;;;5039719;28;20240;-73
2021/08/29 08:40:44;;;;;;;24.20;5.40;;;29.40;99.90;;;;;;5057875;28;20218;-72
2021/08/29 08:43:12;;;;;;;26.13;5.68;;;29.20;99.90;;;;;;5060511;28;20186;-73
2021/08/29 08:45:40;;;;;;;25.15;5.75;;;29.10;99.90;;;;;;5044526;28;20686;-72
2021/08/29 08:48:10;;;;;;;23.20;5.50;;;29.40;99.90;;;;;;5052118;28;20223;-72
2021/08/29 08:50:43;;;;;;;17.50;5.43;;;29.70;99.90;;;;;;5052990;28;20342;-75
2021/08/29 08:53:10;;;;;;;22.08;5.75;;;30.00;99.90;;;;;;5041591;28;20249;-73
2021/08/29 08:55:39;;;;;;;21.45;4.97;;;30.20;99.90;;;;;;5056859;28;20215;-72
2021/08/29 08:58:08;;;;;;;22.92;5.40;;;30.20;99.90;;;;;;5056177;28;20706;-74
2021/08/29 09:00:34;;;;;;;25.45;5.25;;;30.30;98.50;;;;;;5039642;28;20667;-74
2021/08/29 09:03:03;;;;;;;19.02;5.32;;;30.10;96.40;;;;;;5058318;28;20202;-72
2021/08/29 09:05:30;;;;;;;24.30;5.45;;;30.30;94.10;;;;;;5059405;28;20973;-74
2021/08/29 09:07:58;;;;;;;19.33;5.18;;;30.40;93.90;;;;;;5076109;28;20255;-74
2021/08/29 09:10:25;;;;;;;28.48;4.82;;;30.50;93.80;;;;;;5059599;28;20206;-74
2021/08/29 09:12:59;;;;;;;16.05;4.70;;;30.70;96.50;;;;;;5055302;28;20722;-73
2021/08/29 09:15:28;;;;;;;24.48;5.10;;;30.70;96.20;;;;;;5052388;28;20240;-74
2021/08/29 09:17:55;;;;;;;21.35;4.85;;;30.60;98.50;;;;;;5039368;28;20200;-74
2021/08/29 09:20:28;;;;;;;20.27;5.07;;;30.70;95.70;;;;;;5054106;28;20199;-74
2021/08/29 09:23:03;;;;;;;27.85;5.00;;;30.90;93.20;;;;;;5026215;28;20695;-74
2021/08/29 09:25:33;;;;;;;20.52;5.18;;;30.70;95.80;;;;;;5037534;28;20242;-75
2021/08/29 09:28:02;;;;;;;22.02;5.15;;;30.80;93.20;;;;;;5053215;28;20198;-74
2021/08/29 09:30:31;;;;;;;28.75;5.07;;;30.80;91.00;;;;;;5076593;28;20240;-74
2021/08/29 09:33:04;;;;;;;23.98;4.82;;;30.80;93.80;;;;;;5042639;28;20246;-73
2021/08/29 09:35:34;;;;;;;21.67;5.32;;;30.90;94.50;;;;;;5057213;28;20216;-73
2021/08/29 09:38:04;;;;;;;19.65;4.88;;;31.00;94.60;;;;;;5052172;28;20937;-73
2021/08/29 09:40:36;;;;;;;19.45;5.05;;;31.10;94.70;;;;;;5054876;28;20233;-74
2021/08/29 09:43:06;;;;;;;26.02;5.25;;;30.90;96.70;;;;;;5058555;28;20680;-72
2021/08/29 09:45:36;;;;;;;28.88;5.50;;;31.00;94.20;;;;;;5062547;28;20275;-74
2021/08/29 09:48:08;;;;;;;25.63;5.60;;;31.10;95.70;;;;;;5060426;28;20203;-73
2021/08/29 09:50:39;;;;;;;25.55;5.35;;;31.20;94.20;;;;;;5055579;28;20228;-76
2021/08/29 09:53:13;;;;;;;34.15;4.90;;;31.20;92.30;;;;;;5032827;28;20323;-72
2021/08/29 09:55:42;;;;;;;15.82;4.78;;;31.30;92.90;;;;;;5045690;28;20246;-74
2021/08/29 09:58:34;;;;;;;20.02;4.45;;;31.50;92.30;;;;;;5063795;28;20225;-75
2021/08/29 10:01:18;;;;;;;16.20;4.35;;;32.00;89.60;;;;;;5058448;28;20638;-75
2021/08/29 10:03:47;;;;;;;20.60;5.10;;;31.80;86.70;;;;;;5075304;28;20214;-74
2021/08/29 10:06:30;;;;;;;20.92;4.57;;;31.80;87.10;;;;;;5060957;28;20663;-75
2021/08/29 10:09:00;;;;;;;22.08;4.85;;;32.00;89.40;;;;;;5046616;28;20918;-74
2021/08/29 10:11:31;;;;;;;19.13;5.00;;;32.30;85.40;;;;;;5064093;28;20211;-75
2021/08/29 10:13:59;;;;;;;15.75;4.35;;;32.80;85.50;;;;;;5061814;28;20707;-74
2021/08/29 10:16:28;;;;;;;23.80;4.97;;;34.70;86.90;;;;;;5063367;28;20286;-74
2021/08/29 10:18:58;;;;;;;18.38;4.65;;;37.00;71.20;;;;;;5061500;28;20242;-73
2021/08/29 10:21:30;;;;;;;17.17;4.55;;;38.40;65.30;;;;;;5043767;28;20201;-73
2021/08/29 10:23:59;;;;;;;19.17;5.30;;;37.40;65.90;;;;;;5041402;28;20214;-74
2021/08/29 10:26:27;;;;;;;20.90;4.65;;;36.20;69.80;;;;;;5053595;28;20211;-73
2021/08/29 10:29:33;;;;;;;15.25;4.25;;;35.10;67.10;;;;;;5062434;28;20219;-73
2021/08/29 10:32:13;;;;;;;19.73;4.10;;;34.20;70.40;;;;;;5020076;28;20227;-74
2021/08/29 10:34:41;;;;;;;18.15;4.63;;;33.90;76.00;;;;;;5047339;28;20217;-74
2021/08/29 10:37:10;;;;;;;18.00;4.30;;;34.20;72.40;;;;;;5062145;28;20210;-75
2021/08/29 10:39:37;;;;;;;24.02;5.13;;;35.60;73.90;;;;;;5060539;28;20290;-74
2021/08/29 10:42:05;;;;;;;20.00;4.75;;;37.40;74.00;;;;;;5040578;28;20263;-75
2021/08/29 10:44:33;;;;;;;21.23;5.10;;;39.10;65.90;;;;;;5041230;28;20195;-74
2021/08/29 10:47:02;;;;;;;17.70;4.78;;;36.70;63.10;;;;;;5040511;28;20226;-73
2021/08/29 10:49:29;;;;;;;25.40;4.72;;;34.80;70.90;;;;;;5063277;28;20230;-74
2021/08/29 10:51:58;;;;;;;25.50;4.97;;;33.90;77.50;;;;;;5047444;28;20211;-73
2021/08/29 10:54:25;;;;;;;15.93;5.05;;;33.50;69.80;;;;;;5051351;28;20289;-77
2021/08/29 10:56:52;;;;;;;28.73;5.68;;;33.10;76.90;;;;;;5053310;28;20195;-73
2021/08/29 10:59:24;;;;;;;28.83;5.78;;;33.00;80.30;;;;;;5061348;28;20279;-75
2021/08/29 11:02:12;;;;;;;19.25;5.10;;;32.90;89.30;;;;;;5056383;28;20858;-74
2021/08/29 11:04:38;;;;;;;26.17;5.05;;;32.90;89.20;;;;;;5045881;28;20198;-75
2021/08/29 11:07:09;;;;;;;22.10;4.95;;;32.80;84.50;;;;;;5059003;28;20301;-74
2021/08/29 11:09:40;;;;;;;21.77;5.07;;;32.60;86.60;;;;;;5058890;28;20211;-75
2021/08/29 11:12:15;;;;;;;22.50;4.80;;;32.50;90.00;;;;;;5040724;28;20217;-72
2021/08/29 11:14:48;;;;;;;26.60;5.38;;;32.60;82.50;;;;;;5056961;28;20218;-74
2021/08/29 11:17:19;;;;;;;24.25;4.75;;;32.70;85.90;;;;;;5038491;28;20256;-74
2021/08/29 11:19:49;;;;;;;18.35;4.60;;;32.20;87.70;;;;;;5056124;28;20210;-75
2021/08/29 11:22:25;;;;;;;18.52;4.78;;;32.30;87.00;;;;;;5053031;28;20290;-72
2021/08/29 11:25:00;;;;;;;18.48;4.22;;;32.20;83.20;;;;;;5041932;28;20228;-74
2021/08/29 11:27:36;;;;;;;17.65;4.97;;;32.10;84.70;;;;;;5024364;28;20234;-74
2021/08/29 11:30:09;;;;;;;22.00;4.63;;;31.80;88.30;;;;;;5061727;28;20218;-73
2021/08/29 11:32:46;;;;;;;24.35;5.10;;;32.30;90.60;;;;;;5062238;28;20285;-74
2021/08/29 11:35:18;;;;;;;23.42;5.25;;;32.50;88.10;;;;;;5044172;28;20233;-72
2021/08/29 11:38:22;;;;;;;22.38;5.65;;;32.40;86.40;;;;;;5059933;28;20217;-74
2021/08/29 11:40:59;;;;;;;24.83;4.90;;;32.60;88.20;;;;;;5043041;28;20568;-73
2021/08/29 11:43:28;;;;;;;14.65;4.50;;;32.60;89.10;;;;;;5040903;28;20250;-73
2021/08/29 11:46:02;;;;;;;14.82;4.90;;;32.70;83.70;;;;;;5059344;28;20210;-73
2021/08/29 11:48:33;;;;;;;22.25;5.40;;;32.70;84.00;;;;;;5060142;28;20198;-73
2021/08/29 11:51:03;;;;;;;23.40;4.93;;;32.70;88.30;;;;;;5058274;28;20655;-73
2021/08/29 11:53:50;;;;;;;25.48;5.05;;;32.70;92.50;;;;;;5041428;28;20290;-75
2021/08/29 11:56:18;;;;;;;26.05;5.50;;;32.50;91.10;;;;;;5034850;28;20239;-75
2021/08/29 11:58:49;;;;;;;22.02;5.22;;;32.70;91.40;;;;;;5054508;28;20667;-75
2021/08/29 12:01:16;;;;;;;29.08;4.97;;;32.70;90.90;;;;;;5040820;28;20686;-74
2021/08/29 12:03:44;;;;;;;23.85;5.60;;;32.80;92.90;;;;;;5062262;28;20541;-72
2021/08/29 12:06:30;;;;;;;28.88;5.88;;;32.50;93.70;;;;;;5059330;28;20667;-73
2021/08/29 12:09:21;;;;;;;22.55;5.32;;;32.50;93.00;;;;;;5044415;28;20198;-72
2021/08/29 12:11:48;;;;;;;23.52;5.60;;;32.50;94.30;;;;;;5056793;28;20747;-73
2021/08/29 12:14:22;;;;;;;23.05;4.80;;;32.40;93.60;;;;;;5057620;28;20210;-73
2021/08/29 12:16:56;;;;;;;28.00;5.90;;;32.40;93.00;;;;;;5072647;28;20190;-73
2021/08/29 12:19:33;;;;;;;22.15;5.13;;;32.10;95.30;;;;;;5058826;28;20248;-73
2021/08/29 12:22:03;;;;;;;14.65;4.32;;;32.30;94.40;;;;;;5060890;28;20217;-73
2021/08/29 12:24:36;;;;;;;28.08;5.57;;;32.20;93.30;;;;;;5057355;28;20212;-75
2021/08/29 12:27:19;;;;;;;25.20;5.28;;;32.20;95.30;;;;;;5055446;28;20203;-73
2021/08/29 12:29:58;;;;;;;20.77;4.97;;;32.40;95.90;;;;;;5050934;28;20238;-72
2021/08/29 12:32:35;;;;;;;28.13;6.38;;;32.30;93.40;;;;;;5057186;28;20312;-75
2021/08/29 12:35:09;;;;;;;24.92;5.35;;;32.30;95.10;;;;;;5059852;28;20225;-74
2021/08/29 12:37:47;;;;;;;18.90;5.45;;;32.20;94.80;;;;;;5057000;28;20227;-72
2021/08/29 12:40:18;;;;;;;19.77;5.38;;;32.30;96.00;;;;;;5042081;28;20198;-74
2021/08/29 12:42:46;;;;;;;21.05;5.10;;;32.10;96.30;;;;;;5056613;28;20208;-74
2021/08/29 12:45:16;;;;;;;21.55;5.07;;;32.20;98.30;;;;;;5056242;28;20725;-73
2021/08/29 12:47:45;;;;;;;17.58;5.32;;;32.10;99.80;;;;;;5043567;28;20233;-75